sensor_id;sensor_type;location;lat;lon;timestamp;pressure;altitude;pressure_sealevel;temperature;humidity
46412;BME280;32113;42.012;24.870;2022-09-13T00:01:30;98625.69;;;21.26;41.44
46412;BME280;32113;42.012;24.870;2022-09-13T00:03:55;98618.50;;;21.30;41.58
46412;BME280;32113;42.012;24.870;2022-09-13T00:06:21;98618.06;;;21.23;41.15
46412;BME280;32113;42.012;24.870;2022-09-13T00:08:46;98618.72;;;21.12;41.19
46412;BME280;32113;42.012;24.870;2022-09-13T00:11:22;98615.19;;;21.13;41.24
46412;BME280;32113;42.012;24.870;2022-09-13T00:13:47;98616.09;;;21.12;41.14
46412;BME280;32113;42.012;24.870;2022-09-13T00:16:16;98609.50;;;21.06;41.11
46412;BME280;32113;42.012;24.870;2022-09-13T00:18:42;98616.41;;;21.07;41.69
46412;BME280;32113;42.012;24.870;2022-09-13T00:21:11;98612.69;;;21.11;41.26
46412;BME280;32113;42.012;24.870;2022-09-13T00:23:38;98611.19;;;21.07;41.20
46412;BME280;32113;42.012;24.870;2022-09-13T00:26:07;98609.31;;;21.09;41.13
46412;BME280;32113;42.012;24.870;2022-09-13T00:28:33;98608.41;;;21.10;41.00
46412;BME280;32113;42.012;24.870;2022-09-13T00:31:01;98604.84;;;21.11;40.82
46412;BME280;32113;42.012;24.870;2022-09-13T00:33:27;98608.00;;;21.02;40.91
46412;BME280;32113;42.012;24.870;2022-09-13T00:35:52;98607.94;;;21.04;40.68
46412;BME280;32113;42.012;24.870;2022-09-13T00:38:18;98612.75;;;20.95;41.02
46412;BME280;32113;42.012;24.870;2022-09-13T00:40:43;98604.56;;;20.87;40.95
46412;BME280;32113;42.012;24.870;2022-09-13T00:43:15;98609.03;;;20.99;41.16
46412;BME280;32113;42.012;24.870;2022-09-13T00:45:40;98601.78;;;21.05;40.88
46412;BME280;32113;42.012;24.870;2022-09-13T00:48:06;98601.94;;;21.02;41.20
46412;BME280;32113;42.012;24.870;2022-09-13T00:50:39;98607.16;;;21.02;41.18
46412;BME280;32113;42.012;24.870;2022-09-13T00:53:07;98605.56;;;21.13;41.40
46412;BME280;32113;42.012;24.870;2022-09-13T00:55:34;98607.16;;;21.16;41.10
46412;BME280;32113;42.012;24.870;2022-09-13T00:58:04;98606.53;;;20.98;41.19
46412;BME280;32113;42.012;24.870;2022-09-13T01:00:30;98606.22;;;21.03;41.43
46412;BME280;32113;42.012;24.870;2022-09-13T01:02:57;98597.66;;;21.15;41.19
46412;BME280;32113;42.012;24.870;2022-09-13T01:05:24;98599.53;;;21.13;41.34
46412;BME280;32113;42.012;24.870;2022-09-13T01:07:52;98600.56;;;21.10;41.20
46412;BME280;32113;42.012;24.870;2022-09-13T01:10:18;98595.06;;;21.15;41.03
46412;BME280;32113;42.012;24.870;2022-09-13T01:12:47;98597.19;;;21.08;41.60
46412;BME280;32113;42.012;24.870;2022-09-13T01:15:15;98599.25;;;21.18;40.90
46412;BME280;32113;42.012;24.870;2022-09-13T01:17:40;98598.13;;;21.07;40.76
46412;BME280;32113;42.012;24.870;2022-09-13T01:20:06;98601.47;;;20.95;40.72
46412;BME280;32113;42.012;24.870;2022-09-13T01:44:05;98590.59;;;21.03;40.44
46412;BME280;32113;42.012;24.870;2022-09-13T01:54:13;98588.72;;;20.76;40.62
46412;BME280;32113;42.012;24.870;2022-09-13T02:04:38;98587.22;;;20.71;41.31
46412;BME280;32113;42.012;24.870;2022-09-13T02:07:07;98582.25;;;20.67;41.35
46412;BME280;32113;42.012;24.870;2022-09-13T02:09:35;98593.00;;;20.77;41.05
46412;BME280;32113;42.012;24.870;2022-09-13T02:12:12;98585.91;;;20.79;40.70
46412;BME280;32113;42.012;24.870;2022-09-13T02:14:39;98588.41;;;20.80;40.56
46412;BME280;32113;42.012;24.870;2022-09-13T02:17:07;98582.84;;;20.86;40.62
46412;BME280;32113;42.012;24.870;2022-09-13T02:19:39;98580.53;;;20.96;40.30
46412;BME280;32113;42.012;24.870;2022-09-13T02:22:07;98581.47;;;20.95;40.43
46412;BME280;32113;42.012;24.870;2022-09-13T02:24:35;98578.88;;;20.95;40.19
46412;BME280;32113;42.012;24.870;2022-09-13T02:27:02;98576.78;;;20.86;40.53
46412;BME280;32113;42.012;24.870;2022-09-13T02:29:29;98581.56;;;20.94;39.99
46412;BME280;32113;42.012;24.870;2022-09-13T02:32:15;98586.31;;;20.87;40.08
46412;BME280;32113;42.012;24.870;2022-09-13T02:34:45;98580.22;;;20.72;40.31
46412;BME280;32113;42.012;24.870;2022-09-13T02:37:12;98582.28;;;20.81;40.56
46412;BME280;32113;42.012;24.870;2022-09-13T02:39:40;98584.22;;;20.78;40.41
46412;BME280;32113;42.012;24.870;2022-09-13T02:42:18;98578.84;;;20.81;40.57
46412;BME280;32113;42.012;24.870;2022-09-13T02:44:46;98570.94;;;20.82;40.24
46412;BME280;32113;42.012;24.870;2022-09-13T02:55:17;98576.00;;;20.55;40.40
46412;BME280;32113;42.012;24.870;2022-09-13T03:00:28;98582.25;;;20.67;40.30
46412;BME280;32113;42.012;24.870;2022-09-13T03:02:54;98584.47;;;20.58;40.15
46412;BME280;32113;42.012;24.870;2022-09-13T03:05:20;98583.47;;;20.61;40.01
46412;BME280;32113;42.012;24.870;2022-09-13T03:07:46;98583.09;;;20.67;39.76
46412;BME280;32113;42.012;24.870;2022-09-13T03:10:12;98581.69;;;20.61;40.14
46412;BME280;32113;42.012;24.870;2022-09-13T03:12:59;98585.34;;;20.73;39.91
46412;BME280;32113;42.012;24.870;2022-09-13T03:30:28;98594.13;;;20.87;39.30
46412;BME280;32113;42.012;24.870;2022-09-13T03:35:42;98592.38;;;20.87;39.11
46412;BME280;32113;42.012;24.870;2022-09-13T03:38:15;98594.19;;;20.85;39.08
46412;BME280;32113;42.012;24.870;2022-09-13T03:40:47;98591.19;;;20.77;39.29
46412;BME280;32113;42.012;24.870;2022-09-13T03:43:17;98590.00;;;20.83;39.27
46412;BME280;32113;42.012;24.870;2022-09-13T03:45:54;98599.78;;;20.65;39.38
46412;BME280;32113;42.012;24.870;2022-09-13T03:48:21;98595.03;;;20.71;39.46
46412;BME280;32113;42.012;24.870;2022-09-13T03:50:47;98591.66;;;20.69;39.32
46412;BME280;32113;42.012;24.870;2022-09-13T03:53:14;98599.00;;;20.63;39.39
46412;BME280;32113;42.012;24.870;2022-09-13T03:55:42;98595.19;;;20.54;39.42
46412;BME280;32113;42.012;24.870;2022-09-13T03:58:11;98590.06;;;20.52;39.50
46412;BME280;32113;42.012;24.870;2022-09-13T04:00:37;98594.00;;;20.59;39.66
46412;BME280;32113;42.012;24.870;2022-09-13T04:03:05;98595.03;;;20.57;39.41
46412;BME280;32113;42.012;24.870;2022-09-13T04:05:31;98592.88;;;20.64;39.41
46412;BME280;32113;42.012;24.870;2022-09-13T04:07:58;98600.50;;;20.67;39.40
46412;BME280;32113;42.012;24.870;2022-09-13T04:10:23;98601.28;;;20.69;39.38
46412;BME280;32113;42.012;24.870;2022-09-13T04:12:48;98610.53;;;20.58;39.91
46412;BME280;32113;42.012;24.870;2022-09-13T04:15:14;98603.41;;;20.62;39.75
46412;BME280;32113;42.012;24.870;2022-09-13T04:17:40;98604.13;;;20.64;39.76
46412;BME280;32113;42.012;24.870;2022-09-13T04:20:05;98606.75;;;20.64;39.97
46412;BME280;32113;42.012;24.870;2022-09-13T04:22:31;98608.31;;;20.67;40.18
46412;BME280;32113;42.012;24.870;2022-09-13T04:24:56;98606.56;;;20.67;40.34
46412;BME280;32113;42.012;24.870;2022-09-13T04:27:22;98602.66;;;20.74;40.46
46412;BME280;32113;42.012;24.870;2022-09-13T04:29:48;98613.75;;;20.78;40.51
46412;BME280;32113;42.012;24.870;2022-09-13T04:32:13;98602.47;;;20.78;40.82
46412;BME280;32113;42.012;24.870;2022-09-13T04:34:38;98605.47;;;20.71;40.98
46412;BME280;32113;42.012;24.870;2022-09-13T04:37:03;98612.81;;;20.79;41.04
46412;BME280;32113;42.012;24.870;2022-09-13T04:39:29;98608.88;;;20.72;41.40
46412;BME280;32113;42.012;24.870;2022-09-13T04:41:54;98607.38;;;20.68;41.53
46412;BME280;32113;42.012;24.870;2022-09-13T04:44:19;98611.50;;;20.72;41.60
46412;BME280;32113;42.012;24.870;2022-09-13T04:46:46;98619.53;;;20.83;41.22
46412;BME280;32113;42.012;24.870;2022-09-13T04:49:15;98623.19;;;20.95;41.41
46412;BME280;32113;42.012;24.870;2022-09-13T04:51:41;98618.72;;;20.97;41.34
46412;BME280;32113;42.012;24.870;2022-09-13T04:54:07;98619.47;;;20.99;40.88
46412;BME280;32113;42.012;24.870;2022-09-13T04:56:34;98625.25;;;20.90;41.31
46412;BME280;32113;42.012;24.870;2022-09-13T04:58:59;98615.84;;;21.02;41.04
46412;BME280;32113;42.012;24.870;2022-09-13T05:01:24;98624.22;;;21.22;40.90
46412;BME280;32113;42.012;24.870;2022-09-13T05:03:50;98623.28;;;21.23;40.84
46412;BME280;32113;42.012;24.870;2022-09-13T05:06:16;98624.31;;;21.20;40.92
46412;BME280;32113;42.012;24.870;2022-09-13T05:08:42;98629.34;;;21.23;40.87
46412;BME280;32113;42.012;24.870;2022-09-13T05:11:08;98624.78;;;21.12;40.76
46412;BME280;32113;42.012;24.870;2022-09-13T05:13:33;98629.34;;;21.23;41.28
46412;BME280;32113;42.012;24.870;2022-09-13T05:16:00;98623.84;;;21.13;40.97
46412;BME280;32113;42.012;24.870;2022-09-13T05:18:26;98630.06;;;21.11;41.15
46412;BME280;32113;42.012;24.870;2022-09-13T05:20:55;98633.25;;;21.02;41.10
46412;BME280;32113;42.012;24.870;2022-09-13T05:23:21;98638.78;;;20.81;42.12
46412;BME280;32113;42.012;24.870;2022-09-13T05:25:51;98628.53;;;20.78;42.00
46412;BME280;32113;42.012;24.870;2022-09-13T05:28:16;98618.69;;;20.83;42.58
46412;BME280;32113;42.012;24.870;2022-09-13T05:30:42;98629.59;;;20.90;41.45
46412;BME280;32113;42.012;24.870;2022-09-13T05:33:07;98634.16;;;20.86;42.15
46412;BME280;32113;42.012;24.870;2022-09-13T05:35:32;98627.94;;;21.03;41.96
46412;BME280;32113;42.012;24.870;2022-09-13T05:37:58;98617.41;;;21.05;41.22
46412;BME280;32113;42.012;24.870;2022-09-13T05:40:23;98627.09;;;21.17;41.17
46412;BME280;32113;42.012;24.870;2022-09-13T05:42:48;98622.81;;;21.02;41.01
46412;BME280;32113;42.012;24.870;2022-09-13T05:45:16;98633.44;;;21.13;41.10
46412;BME280;32113;42.012;24.870;2022-09-13T05:47:41;98622.91;;;21.14;41.27
46412;BME280;32113;42.012;24.870;2022-09-13T05:50:07;98628.22;;;21.13;41.12
46412;BME280;32113;42.012;24.870;2022-09-13T05:52:32;98625.41;;;21.16;40.68
46412;BME280;32113;42.012;24.870;2022-09-13T05:54:57;98632.31;;;21.17;40.66
46412;BME280;32113;42.012;24.870;2022-09-13T05:57:23;98627.38;;;20.98;40.47
46412;BME280;32113;42.012;24.870;2022-09-13T05:59:48;98622.72;;;21.03;40.74
46412;BME280;32113;42.012;24.870;2022-09-13T06:02:13;98636.22;;;21.10;41.50
46412;BME280;32113;42.012;24.870;2022-09-13T06:04:38;98624.13;;;21.23;41.52
46412;BME280;32113;42.012;24.870;2022-09-13T06:07:04;98623.19;;;21.24;41.46
46412;BME280;32113;42.012;24.870;2022-09-13T06:09:29;98615.34;;;21.24;41.27
46412;BME280;32113;42.012;24.870;2022-09-13T06:11:54;98617.13;;;21.24;40.67
46412;BME280;32113;42.012;24.870;2022-09-13T06:14:19;98620.00;;;21.34;41.22
46412;BME280;32113;42.012;24.870;2022-09-13T06:16:45;98612.19;;;21.34;40.90
46412;BME280;32113;42.012;24.870;2022-09-13T06:19:10;98617.84;;;21.40;41.05
46412;BME280;32113;42.012;24.870;2022-09-13T06:21:35;98620.06;;;21.47;40.54
46412;BME280;32113;42.012;24.870;2022-09-13T06:24:01;98614.66;;;21.50;40.28
46412;BME280;32113;42.012;24.870;2022-09-13T06:26:27;98620.16;;;21.60;40.32
46412;BME280;32113;42.012;24.870;2022-09-13T06:28:53;98619.00;;;21.64;40.34
46412;BME280;32113;42.012;24.870;2022-09-13T06:31:19;98619.59;;;21.55;39.59
46412;BME280;32113;42.012;24.870;2022-09-13T06:33:45;98626.97;;;21.62;40.17
46412;BME280;32113;42.012;24.870;2022-09-13T06:36:12;98631.34;;;21.62;40.03
46412;BME280;32113;42.012;24.870;2022-09-13T06:38:39;98634.03;;;21.60;40.21
46412;BME280;32113;42.012;24.870;2022-09-13T06:41:08;98641.84;;;21.75;40.47
46412;BME280;32113;42.012;24.870;2022-09-13T06:43:34;98638.13;;;21.79;39.45
46412;BME280;32113;42.012;24.870;2022-09-13T06:46:03;98639.69;;;21.82;39.12
46412;BME280;32113;42.012;24.870;2022-09-13T06:48:31;98649.09;;;21.84;39.43
46412;BME280;32113;42.012;24.870;2022-09-13T06:50:57;98649.75;;;21.88;38.70
46412;BME280;32113;42.012;24.870;2022-09-13T06:53:22;98653.88;;;21.77;38.87
46412;BME280;32113;42.012;24.870;2022-09-13T06:55:48;98644.69;;;21.72;38.66
46412;BME280;32113;42.012;24.870;2022-09-13T06:58:13;98653.97;;;21.76;38.81
46412;BME280;32113;42.012;24.870;2022-09-13T07:00:38;98650.50;;;21.90;39.08
46412;BME280;32113;42.012;24.870;2022-09-13T07:03:03;98658.09;;;22.08;39.14
46412;BME280;32113;42.012;24.870;2022-09-13T07:05:29;98650.50;;;21.90;38.87
46412;BME280;32113;42.012;24.870;2022-09-13T07:07:54;98663.38;;;21.93;38.51
46412;BME280;32113;42.012;24.870;2022-09-13T07:10:19;98651.97;;;21.94;38.82
46412;BME280;32113;42.012;24.870;2022-09-13T07:12:44;98653.09;;;21.90;38.89
46412;BME280;32113;42.012;24.870;2022-09-13T07:15:10;98661.09;;;22.01;38.57
46412;BME280;32113;42.012;24.870;2022-09-13T07:17:35;98662.28;;;22.10;38.65
46412;BME280;32113;42.012;24.870;2022-09-13T07:20:00;98668.31;;;22.11;38.39
46412;BME280;32113;42.012;24.870;2022-09-13T07:22:26;98653.75;;;22.21;38.37
46412;BME280;32113;42.012;24.870;2022-09-13T07:24:52;98656.91;;;22.26;38.05
46412;BME280;32113;42.012;24.870;2022-09-13T07:27:17;98663.47;;;22.32;37.60
46412;BME280;32113;42.012;24.870;2022-09-13T07:29:43;98660.22;;;22.28;37.52
46412;BME280;32113;42.012;24.870;2022-09-13T07:32:08;98665.47;;;22.28;37.50
46412;BME280;32113;42.012;24.870;2022-09-13T07:34:33;98676.22;;;22.24;37.48
46412;BME280;32113;42.012;24.870;2022-09-13T07:36:59;98665.47;;;22.28;38.04
46412;BME280;32113;42.012;24.870;2022-09-13T07:39:24;98666.09;;;22.32;38.26
46412;BME280;32113;42.012;24.870;2022-09-13T07:41:50;98674.72;;;22.47;38.29
46412;BME280;32113;42.012;24.870;2022-09-13T07:44:15;98672.16;;;22.60;38.24
46412;BME280;32113;42.012;24.870;2022-09-13T07:46:41;98671.84;;;22.65;37.55
46412;BME280;32113;42.012;24.870;2022-09-13T07:49:10;98680.13;;;22.72;38.01
46412;BME280;32113;42.012;24.870;2022-09-13T07:51:36;98669.13;;;22.66;37.83
46412;BME280;32113;42.012;24.870;2022-09-13T07:54:03;98672.56;;;22.54;37.47
46412;BME280;32113;42.012;24.870;2022-09-13T07:56:30;98671.63;;;22.55;37.60
46412;BME280;32113;42.012;24.870;2022-09-13T07:58:57;98683.25;;;22.64;38.23
46412;BME280;32113;42.012;24.870;2022-09-13T08:01:25;98682.31;;;22.78;38.23
46412;BME280;32113;42.012;24.870;2022-09-13T08:03:51;98670.09;;;22.91;37.93
46412;BME280;32113;42.012;24.870;2022-09-13T08:06:17;98668.09;;;23.08;37.48
46412;BME280;32113;42.012;24.870;2022-09-13T08:08:42;98675.13;;;23.07;36.30
46412;BME280;32113;42.012;24.870;2022-09-13T08:11:09;98682.75;;;22.97;36.68
46412;BME280;32113;42.012;24.870;2022-09-13T08:13:38;98676.59;;;23.12;36.62
46412;BME280;32113;42.012;24.870;2022-09-13T08:16:04;98669.78;;;23.22;36.73
46412;BME280;32113;42.012;24.870;2022-09-13T08:18:30;98688.28;;;23.32;37.10
46412;BME280;32113;42.012;24.870;2022-09-13T08:20:56;98680.16;;;23.36;35.27
46412;BME280;32113;42.012;24.870;2022-09-13T08:23:22;98685.59;;;23.46;35.73
46412;BME280;32113;42.012;24.870;2022-09-13T08:25:47;98685.03;;;23.54;35.05
46412;BME280;32113;42.012;24.870;2022-09-13T08:28:16;98687.91;;;23.75;35.60
46412;BME280;32113;42.012;24.870;2022-09-13T08:30:42;98693.97;;;23.76;35.77
46412;BME280;32113;42.012;24.870;2022-09-13T08:33:09;98684.34;;;23.77;36.04
46412;BME280;32113;42.012;24.870;2022-09-13T08:35:34;98679.69;;;23.93;36.22
46412;BME280;32113;42.012;24.870;2022-09-13T08:38:00;98672.94;;;24.02;35.34
46412;BME280;32113;42.012;24.870;2022-09-13T08:40:37;98682.13;;;24.21;35.26
46412;BME280;32113;42.012;24.870;2022-09-13T08:45:38;98674.53;;;24.29;34.41
46412;BME280;32113;42.012;24.870;2022-09-13T08:48:07;98672.84;;;24.28;35.03
46412;BME280;32113;42.012;24.870;2022-09-13T08:50:35;98664.13;;;24.52;35.74
46412;BME280;32113;42.012;24.870;2022-09-13T08:55:42;98667.00;;;25.08;35.13
46412;BME280;32113;42.012;24.870;2022-09-13T08:58:16;98663.88;;;25.37;33.51
46412;BME280;32113;42.012;24.870;2022-09-13T09:00:48;98671.88;;;25.47;32.85
46412;BME280;32113;42.012;24.870;2022-09-13T09:03:35;98672.69;;;25.81;33.02
46412;BME280;32113;42.012;24.870;2022-09-13T09:06:06;98666.88;;;26.10;32.88
46412;BME280;32113;42.012;24.870;2022-09-13T09:08:40;98668.16;;;26.16;31.75
46412;BME280;32113;42.012;24.870;2022-09-13T09:11:09;98669.78;;;25.96;31.07
46412;BME280;32113;42.012;24.870;2022-09-13T09:18:45;98659.06;;;26.32;30.81
46412;BME280;32113;42.012;24.870;2022-09-13T09:21:14;98660.59;;;26.34;30.08
46412;BME280;32113;42.012;24.870;2022-09-13T09:23:43;98653.53;;;26.56;30.37
46412;BME280;32113;42.012;24.870;2022-09-13T09:26:23;98657.06;;;26.67;29.95
46412;BME280;32113;42.012;24.870;2022-09-13T09:38:50;98654.22;;;27.32;29.18
46412;BME280;32113;42.012;24.870;2022-09-13T09:46:36;98659.28;;;27.14;27.61
46412;BME280;32113;42.012;24.870;2022-09-13T09:49:25;98662.00;;;27.02;27.76
46412;BME280;32113;42.012;24.870;2022-09-13T09:52:06;98664.03;;;26.77;28.02
46412;BME280;32113;42.012;24.870;2022-09-13T09:54:34;98661.50;;;26.66;28.39
46412;BME280;32113;42.012;24.870;2022-09-13T09:57:02;98664.03;;;26.77;27.62
46412;BME280;32113;42.012;24.870;2022-09-13T09:59:28;98662.69;;;26.83;28.04
46412;BME280;32113;42.012;24.870;2022-09-13T10:01:55;98671.69;;;26.81;27.80
46412;BME280;32113;42.012;24.870;2022-09-13T10:04:22;98665.75;;;26.57;28.38
46412;BME280;32113;42.012;24.870;2022-09-13T10:06:48;98675.00;;;26.40;27.82
46412;BME280;32113;42.012;24.870;2022-09-13T10:09:14;98677.44;;;26.20;27.88
46412;BME280;32113;42.012;24.870;2022-09-13T10:11:51;98669.78;;;25.96;27.69
46412;BME280;32113;42.012;24.870;2022-09-13T10:14:27;98669.44;;;25.89;28.46
46412;BME280;32113;42.012;24.870;2022-09-13T10:19:29;98664.66;;;25.83;29.33
46412;BME280;32113;42.012;24.870;2022-09-13T10:21:59;98661.34;;;25.81;29.50
46412;BME280;32113;42.012;24.870;2022-09-13T10:24:25;98650.84;;;25.81;29.63
46412;BME280;32113;42.012;24.870;2022-09-13T10:26:51;98647.16;;;25.72;29.59
46412;BME280;32113;42.012;24.870;2022-09-13T10:29:16;98651.56;;;25.60;29.18
46412;BME280;32113;42.012;24.870;2022-09-13T10:31:43;98646.72;;;25.55;29.27
46412;BME280;32113;42.012;24.870;2022-09-13T10:36:48;98633.09;;;25.50;29.13
46412;BME280;32113;42.012;24.870;2022-09-13T10:39:19;98629.16;;;25.33;28.94
46412;BME280;32113;42.012;24.870;2022-09-13T10:41:53;98629.88;;;25.35;28.88
46412;BME280;32113;42.012;24.870;2022-09-13T10:44:33;98625.56;;;25.45;29.20
46412;BME280;32113;42.012;24.870;2022-09-13T10:47:06;98614.69;;;25.62;29.27
46412;BME280;32113;42.012;24.870;2022-09-13T10:49:40;98618.75;;;25.66;29.26
46412;BME280;32113;42.012;24.870;2022-09-13T10:54:51;98614.56;;;25.75;29.42
46412;BME280;32113;42.012;24.870;2022-09-13T10:59:58;98612.78;;;25.96;28.21
46412;BME280;32113;42.012;24.870;2022-09-13T11:13:27;98594.66;;;27.00;26.75
46412;BME280;32113;42.012;24.870;2022-09-13T11:15:57;98590.75;;;27.35;26.98
46412;BME280;32113;42.012;24.870;2022-09-13T11:21:10;98586.47;;;27.44;25.57
46412;BME280;32113;42.012;24.870;2022-09-13T11:39:10;98575.63;;;27.27;25.57
46412;BME280;32113;42.012;24.870;2022-09-13T11:57:11;98555.19;;;27.90;25.44
46412;BME280;32113;42.012;24.870;2022-09-13T12:02:35;98550.31;;;27.86;25.32
46412;BME280;32113;42.012;24.870;2022-09-13T12:13:23;98551.56;;;28.01;25.10
46412;BME280;32113;42.012;24.870;2022-09-13T12:15:51;98549.16;;;28.18;24.32
46412;BME280;32113;42.012;24.870;2022-09-13T12:20:53;98557.13;;;28.08;23.49
46412;BME280;32113;42.012;24.870;2022-09-13T12:23:23;98561.53;;;28.07;24.44
46412;BME280;32113;42.012;24.870;2022-09-13T12:26:06;98554.03;;;28.13;23.98
46412;BME280;32113;42.012;24.870;2022-09-13T12:28:35;98557.09;;;28.28;24.10
46412;BME280;32113;42.012;24.870;2022-09-13T12:31:04;98550.72;;;28.30;23.03
46412;BME280;32113;42.012;24.870;2022-09-13T12:33:31;98554.56;;;28.46;22.86
46412;BME280;32113;42.012;24.870;2022-09-13T12:56:02;98559.72;;;28.85;23.79
46412;BME280;32113;42.012;24.870;2022-09-13T13:01:02;98556.00;;;28.11;23.82
46412;BME280;32113;42.012;24.870;2022-09-13T13:03:31;98556.00;;;28.01;23.76
46412;BME280;32113;42.012;24.870;2022-09-13T13:06:10;98560.84;;;28.15;25.03
46412;BME280;32113;42.012;24.870;2022-09-13T13:08:39;98558.22;;;28.25;24.05
46412;BME280;32113;42.012;24.870;2022-09-13T13:11:12;98560.97;;;28.14;23.77
46412;BME280;32113;42.012;24.870;2022-09-13T13:18:48;98566.66;;;28.19;24.48
46412;BME280;32113;42.012;24.870;2022-09-13T13:24:35;98574.44;;;28.01;24.81
46412;BME280;32113;42.012;24.870;2022-09-13T13:26:46;98576.53;;;28.07;25.10
46412;BME280;32113;42.012;24.870;2022-09-13T13:29:16;98566.97;;;28.16;25.70
46412;BME280;32113;42.012;24.870;2022-09-13T13:31:43;98572.09;;;28.17;24.03
46412;BME280;32113;42.012;24.870;2022-09-13T13:34:32;98565.53;;;28.22;24.99
46412;BME280;32113;42.012;24.870;2022-09-13T13:37:05;98571.53;;;28.24;25.16
46412;BME280;32113;42.012;24.870;2022-09-13T13:39:47;98561.25;;;28.30;25.10
46412;BME280;32113;42.012;24.870;2022-09-13T13:42:25;98561.25;;;28.20;24.71
46412;BME280;32113;42.012;24.870;2022-09-13T13:49:42;98565.97;;;28.17;24.61
46412;BME280;32113;42.012;24.870;2022-09-13T13:57:32;98563.50;;;28.25;24.34
46412;BME280;32113;42.012;24.870;2022-09-13T14:02:41;98574.00;;;28.45;23.80
46412;BME280;32113;42.012;24.870;2022-09-13T14:10:32;98585.50;;;28.54;23.66
46412;BME280;32113;42.012;24.870;2022-09-13T14:13:24;98578.41;;;28.54;23.69
46412;BME280;32113;42.012;24.870;2022-09-13T14:20:58;98578.19;;;28.18;24.13
46412;BME280;32113;42.012;24.870;2022-09-13T14:23:24;98584.28;;;28.28;24.27
46412;BME280;32113;42.012;24.870;2022-09-13T14:25:56;98580.97;;;28.36;23.76
46412;BME280;32113;42.012;24.870;2022-09-13T14:28:22;98577.06;;;28.40;24.02
46412;BME280;32113;42.012;24.870;2022-09-13T14:30:47;98584.41;;;28.46;24.38
46412;BME280;32113;42.012;24.870;2022-09-13T14:33:23;98584.69;;;28.53;23.90
46412;BME280;32113;42.012;24.870;2022-09-13T14:35:55;98580.25;;;28.44;24.32
46412;BME280;32113;42.012;24.870;2022-09-13T14:38:22;98580.97;;;28.36;23.81
46412;BME280;32113;42.012;24.870;2022-09-13T14:40:49;98584.97;;;28.40;24.11
46412;BME280;32113;42.012;24.870;2022-09-13T14:43:18;98582.19;;;28.42;24.08
46412;BME280;32113;42.012;24.870;2022-09-13T14:45:44;98583.31;;;28.39;23.96
46412;BME280;32113;42.012;24.870;2022-09-13T14:48:14;98581.22;;;28.23;24.48
46412;BME280;32113;42.012;24.870;2022-09-13T14:50:46;98583.19;;;28.31;24.33
46412;BME280;32113;42.012;24.870;2022-09-13T14:53:14;98582.91;;;28.24;24.54
46412;BME280;32113;42.012;24.870;2022-09-13T14:55:50;98579.84;;;28.19;24.85
46412;BME280;32113;42.012;24.870;2022-09-13T14:58:18;98581.34;;;28.22;25.46
46412;BME280;32113;42.012;24.870;2022-09-13T15:00:47;98584.97;;;28.20;24.30
46412;BME280;32113;42.012;24.870;2022-09-13T15:03:14;98584.16;;;28.20;24.95
46412;BME280;32113;42.012;24.870;2022-09-13T15:05:40;98581.94;;;28.15;24.60
46412;BME280;32113;42.012;24.870;2022-09-13T15:08:25;98586.50;;;28.23;25.33
46412;BME280;32113;42.012;24.870;2022-09-13T15:10:50;98584.16;;;28.30;25.04
46412;BME280;32113;42.012;24.870;2022-09-13T15:13:16;98587.63;;;28.30;24.88
46412;BME280;32113;42.012;24.870;2022-09-13T15:15:42;98577.91;;;28.21;24.48
46412;BME280;32113;42.012;24.870;2022-09-13T15:20:55;98580.13;;;28.26;25.70
46412;BME280;32113;42.012;24.870;2022-09-13T15:25:54;98577.09;;;28.30;25.18
46412;BME280;32113;42.012;24.870;2022-09-13T15:28:27;98582.91;;;28.24;25.17
46412;BME280;32113;42.012;24.870;2022-09-13T15:30:53;98581.66;;;28.18;24.89
46412;BME280;32113;42.012;24.870;2022-09-13T15:35:50;98585.84;;;27.91;24.84
46412;BME280;32113;42.012;24.870;2022-09-13T15:38:28;98574.59;;;27.79;25.22
46412;BME280;32113;42.012;24.870;2022-09-13T15:41:16;98590.25;;;27.71;25.27
46412;BME280;32113;42.012;24.870;2022-09-13T15:43:42;98588.00;;;27.57;25.47
46412;BME280;32113;42.012;24.870;2022-09-13T15:46:10;98593.09;;;27.48;25.80
46412;BME280;32113;42.012;24.870;2022-09-13T15:48:38;98597.53;;;27.38;26.39
46412;BME280;32113;42.012;24.870;2022-09-13T15:53:29;98602.63;;;27.29;26.38
46412;BME280;32113;42.012;24.870;2022-09-13T15:55:54;98602.22;;;27.24;25.90
46412;BME280;32113;42.012;24.870;2022-09-13T15:58:20;98606.34;;;27.17;26.63
46412;BME280;32113;42.012;24.870;2022-09-13T16:00:45;98612.84;;;27.13;26.76
46412;BME280;32113;42.012;24.870;2022-09-13T16:03:10;98624.63;;;27.09;27.20
46412;BME280;32113;42.012;24.870;2022-09-13T16:05:36;98613.91;;;27.00;27.65
46412;BME280;32113;42.012;24.870;2022-09-13T16:08:01;98614.53;;;26.93;27.99
46412;BME280;32113;42.012;24.870;2022-09-13T16:10:26;98617.84;;;26.85;27.96
46412;BME280;32113;42.012;24.870;2022-09-13T16:12:52;98616.41;;;26.81;28.25
46412;BME280;32113;42.012;24.870;2022-09-13T16:15:18;98616.25;;;26.72;28.62
46412;BME280;32113;42.012;24.870;2022-09-13T16:17:44;98621.06;;;26.67;28.46
46412;BME280;32113;42.012;24.870;2022-09-13T16:20:13;98615.47;;;26.60;27.60
46412;BME280;32113;42.012;24.870;2022-09-13T16:22:39;98609.91;;;26.54;27.76
46412;BME280;32113;42.012;24.870;2022-09-13T16:25:04;98613.50;;;26.53;27.65
46412;BME280;32113;42.012;24.870;2022-09-13T16:27:30;98618.56;;;26.44;27.87
46412;BME280;32113;42.012;24.870;2022-09-13T16:29:55;98615.63;;;26.37;27.86
46412;BME280;32113;42.012;24.870;2022-09-13T16:32:21;98617.78;;;26.32;27.88
46412;BME280;32113;42.012;24.870;2022-09-13T16:34:46;98618.31;;;26.26;28.15
46412;BME280;32113;42.012;24.870;2022-09-13T16:37:17;98611.28;;;26.27;27.34
46412;BME280;32113;42.012;24.870;2022-09-13T16:39:44;98617.09;;;26.19;27.75